首页
METAR-TAF:

METAR-TAF

机场 :

厦门高崎国际机场

厦门, 中华人民共和国

纬度: 24-29N, 经度: 118-05E, 海拔: 139米

当前天气观测

该预报发布于58分钟前的07:00 UTC
风速12节,风向南转南东
温度 32°C
湿度 67%
气压 1008 hPa
能见度10公里或以上
1500米以下无云,无积雨云

METAR: ZSAM 220700Z 15006MPS CAVOK 32/25 Q1008 NOSIG

时间: 15:58 (07:58 UTC)

预报

该预报发布于4小时和38分钟前的03:20 UTC
预报有效从22日的 06点(UTC)到 23日的 06点(UTC)
风速8节,风向南转南东
能見度: 6000
散云层高于2000英尺
多云层高于4000英尺
短暂存在
从 22日的 06点(UTC)到 22日的 12点(UTC)
散云层高于2300英尺, 积雨云.
多云层高于2600英尺
短暂存在
从 22日的 12点(UTC)到 22日的 18点(UTC)
少量云层高于2500英尺, 积雨云.
多云层高于3000英尺
阵雨

TAF: ZSAM 220320Z 2206/2306 16004MPS 6000 SCT020 BKN040 TX35/2206Z TN26/2221Z TEMPO 2206/2212 SCT023CB BKN026 TEMPO 2212/2218 SHRA FEW025CB BKN030

超过4000个机场的气象观测和天气预报(METAR&TAF报告)。

可查询的气象台以黄色和红色小点在地图上表示。

将鼠标移到小点上方,可查看气象台名称。

然后点击查看天气观测和预报。

如需切换地图:点击带黑十字的绿色按钮放大地图;点击带横线的绿色按钮缩小地图;或者点击绿色箭头查看邻近地区的地图。


METAR-TAF: